Time;durP1;ratioP1;P1;durP2;ratioP2;P2;SDS_P1;SDS_P2;PMS_P1;PMS_P2;Temp;Humidity;BMP_temperature;BMP_pressure;BME280_temperature;BME280_humidity;BME280_pressure;Samples;Min_cycle;Max_cycle;Signal;HPM_P1;HPM_P2
2022/10/24 00:01:10;;;;;;;;;;;13.60;99.90;;;;;;5053884;28;20123;-73
2022/10/24 00:03:36;;;;;;;26.02;20.83;;;13.50;99.90;;;;;;5053319;28;19912;-74
2022/10/24 00:06:03;;;;;;;;;;;13.40;99.90;;;;;;5072034;28;20028;-74
2022/10/24 00:08:29;;;;;;;26.05;19.95;;;13.40;99.90;;;;;;5053650;28;19912;-74
2022/10/24 00:10:54;;;;;;;;;;;13.40;99.90;;;;;;5071303;28;20044;-74
2022/10/24 00:13:20;;;;;;;31.77;22.42;;;13.30;99.90;;;;;;5072019;28;19914;-74
2022/10/24 00:15:46;;;;;;;;;;;13.30;99.90;;;;;;5072039;28;20412;-73
2022/10/24 00:18:12;;;;;;;38.30;24.77;;;13.30;99.90;;;;;;5071808;28;20003;-73
2022/10/24 00:20:39;;;;;;;27.75;22.75;;;13.20;99.90;;;;;;5071778;28;20552;-74
2022/10/24 00:23:04;;;;;;;31.83;22.65;;;13.20;99.90;;;;;;5054035;28;20025;-73
2022/10/24 00:25:30;;;;;;;;;;;13.20;99.90;;;;;;5054235;28;20032;-73
2022/10/24 00:27:55;;;;;;;29.52;23.30;;;13.10;99.90;;;;;;5071307;28;20360;-74
2022/10/24 00:30:21;;;;;;;;;;;13.10;99.90;;;;;;5072218;28;20029;-74
2022/10/24 00:32:47;;;;;;;26.80;21.58;;;13.10;99.90;;;;;;5053264;28;19911;-73
2022/10/24 00:35:12;;;;;;;;;;;13.00;99.90;;;;;;5071891;28;20572;-74
2022/10/24 00:37:38;;;;;;;31.17;23.90;;;13.10;99.90;;;;;;5053971;28;19905;-74
2022/10/24 00:40:04;;;;;;;;;;;13.00;99.90;;;;;;5072146;28;20027;-74
2022/10/24 00:42:30;;;;;;;35.17;25.42;;;13.00;99.90;;;;;;5071859;28;20384;-73
2022/10/24 00:44:55;;;;;;;;;;;13.00;99.90;;;;;;5054227;28;20032;-74
2022/10/24 00:47:24;;;;;;;30.65;22.85;;;13.10;99.90;;;;;;5053625;28;19909;-73
2022/10/24 00:50:03;;;;;;;41.13;26.13;;;13.10;99.90;;;;;;5053737;28;20031;-74
2022/10/24 00:52:35;;;;;;;30.73;23.83;;;13.10;99.90;;;;;;5053473;28;20035;-74
2022/10/24 00:55:03;;;;;;;34.88;25.17;;;13.20;99.90;;;;;;5071391;28;20071;-73
2022/10/24 00:57:48;;;;;;;37.40;27.20;;;13.20;99.90;;;;;;5071449;28;20064;-74
2022/10/24 01:00:20;;;;;;;38.63;25.83;;;13.10;99.90;;;;;;5053831;28;20056;-74
2022/10/24 01:02:46;;;;;;;36.40;27.90;;;13.10;99.90;;;;;;5071785;28;20032;-74
2022/10/24 01:05:11;;;;;;;34.20;26.30;;;13.00;99.90;;;;;;5072353;28;20520;-74
2022/10/24 01:07:40;;;;;;;;;;;13.00;99.90;;;;;;5054479;28;20052;-74
2022/10/24 01:10:42;;;;;;;43.45;29.85;;;12.90;99.90;;;;;;5072503;28;20357;-74
2022/10/24 01:13:07;;;;;;;46.60;29.88;;;12.90;99.90;;;;;;5054594;28;20035;-75
2022/10/24 01:15:39;;;;;;;;;;;12.80;99.90;;;;;;5054786;28;20044;-74
2022/10/24 01:18:52;;;;;;;45.65;30.25;;;12.80;99.90;;;;;;5054241;28;20231;-75
2022/10/24 01:21:29;;;;;;;42.90;31.20;;;12.90;99.90;;;;;;5018086;28;20028;-76
2022/10/24 01:24:30;;;;;;;41.85;29.52;;;12.90;99.90;;;;;;5071730;28;20055;-75
2022/10/24 01:27:04;;;;;;;43.30;30.02;;;12.90;99.90;;;;;;5052808;28;20039;-75
2022/10/24 01:29:56;;;;;;;40.67;29.20;;;12.90;99.90;;;;;;5052937;28;20024;-75
2022/10/24 01:32:52;;;;;;;41.72;29.00;;;12.80;99.90;;;;;;5052703;28;20028;-75
2022/10/24 01:35:29;;;;;;;44.28;29.27;;;12.70;99.90;;;;;;5052298;28;20037;-74
2022/10/24 01:38:11;;;;;;;41.22;27.77;;;12.70;99.90;;;;;;5052327;28;20063;-75
2022/10/24 01:40:52;;;;;;;45.95;29.55;;;12.70;99.90;;;;;;5052283;28;20119;-74
2022/10/24 01:43:23;;;;;;;47.38;31.23;;;12.60;99.90;;;;;;5070094;28;20021;-75
2022/10/24 01:45:54;;;;;;;45.53;31.17;;;12.70;99.90;;;;;;5070231;28;20032;-75
2022/10/24 01:48:23;;;;;;;50.33;32.17;;;12.60;99.90;;;;;;5052487;28;20040;-75
2022/10/24 01:50:52;;;;;;;52.55;31.25;;;12.80;99.90;;;;;;5052176;28;20032;-75
2022/10/24 01:53:20;;;;;;;54.80;33.70;;;12.70;99.90;;;;;;5051945;28;20031;-75
2022/10/24 01:55:47;;;;;;;49.40;30.65;;;12.70;99.90;;;;;;5069751;28;20036;-75
2022/10/24 01:58:13;;;;;;;52.35;31.60;;;12.70;99.90;;;;;;5070223;28;20051;-75
2022/10/24 02:00:38;;;;;;;;;;;12.80;99.90;;;;;;5052102;28;20481;-75
2022/10/24 02:03:23;;;;;;;50.80;31.23;;;12.70;99.90;;;;;;5051951;28;19908;-75
2022/10/24 02:05:53;;;;;;;47.03;30.90;;;12.60;99.90;;;;;;5070208;28;20480;-75
2022/10/24 02:08:26;;;;;;;47.70;30.25;;;12.70;99.90;;;;;;5052222;28;20040;-75
2022/10/24 02:10:58;;;;;;;51.63;31.42;;;12.70;99.90;;;;;;5069910;28;20028;-75
2022/10/24 02:13:48;;;;;;;54.72;30.95;;;12.70;99.90;;;;;;5052596;28;20059;-75
2022/10/24 02:16:17;;;;;;;54.72;31.17;;;12.70;99.90;;;;;;5052121;28;20420;-75
2022/10/24 02:18:43;;;;;;;44.28;28.63;;;12.70;99.90;;;;;;5052270;28;20082;-75
2022/10/24 02:21:17;;;;;;;47.47;29.33;;;12.70;99.90;;;;;;5052067;28;20428;-76
2022/10/24 02:24:19;;;;;;;48.15;29.35;;;12.70;99.90;;;;;;5070237;28;20086;-75
2022/10/24 02:26:56;;;;;;;46.10;29.77;;;12.70;99.90;;;;;;5071748;28;20032;-76
2022/10/24 02:29:32;;;;;;;50.17;29.15;;;12.70;99.90;;;;;;5074095;28;20078;-75
2022/10/24 02:32:00;;;;;;;46.00;30.15;;;12.70;99.90;;;;;;5073840;28;20020;-75
2022/10/24 02:34:31;;;;;;;46.38;29.75;;;12.70;99.90;;;;;;5055076;28;20202;-74
2022/10/24 02:36:57;;;;;;;41.97;28.25;;;12.70;99.90;;;;;;5073113;28;20082;-75
2022/10/24 02:39:25;;;;;;;42.90;29.15;;;12.70;99.90;;;;;;5073375;28;20029;-75
2022/10/24 02:41:53;;;;;;;41.25;26.17;;;12.70;99.90;;;;;;5073532;28;20040;-75
2022/10/24 02:44:20;;;;;;;39.90;26.58;;;12.70;99.90;;;;;;5055886;28;20024;-74
2022/10/24 02:46:49;;;;;;;42.90;26.08;;;12.70;99.90;;;;;;5055744;28;20544;-75
2022/10/24 02:49:15;;;;;;;43.58;26.08;;;12.70;99.90;;;;;;5073433;28;20025;-75
2022/10/24 02:51:42;;;;;;;;;;;12.80;99.90;;;;;;5073968;28;20412;-75
2022/10/24 02:54:09;;;;;;;;;;;12.80;99.90;;;;;;5073938;28;19966;-75
2022/10/24 02:56:39;;;;;;;40.80;26.15;;;12.80;99.90;;;;;;5055633;28;19908;-75
2022/10/24 02:59:05;;;;;;;40.78;25.98;;;12.80;99.90;;;;;;5073587;28;20021;-75
2022/10/24 03:01:30;;;;;;;;;;;12.80;99.90;;;;;;5056016;28;20032;-75
2022/10/24 03:03:56;;;;;;;42.33;25.77;;;12.80;99.90;;;;;;5073658;28;19915;-75
2022/10/24 03:06:21;;;;;;;37.70;23.63;;;12.80;99.90;;;;;;5073299;28;20075;-75
2022/10/24 03:08:47;;;;;;;;;;;12.80;99.90;;;;;;5073873;28;20135;-75
2022/10/24 03:11:13;;;;;;;45.08;24.70;;;12.80;99.90;;;;;;5073610;28;20287;-75
2022/10/24 03:13:38;;;;;;;;;;;12.80;99.90;;;;;;5056141;28;20111;-75
2022/10/24 03:16:04;;;;;;;42.88;24.00;;;12.80;99.90;;;;;;5055337;28;19976;-75
2022/10/24 03:18:30;;;;;;;;;;;12.80;99.90;;;;;;5055750;28;20551;-75
2022/10/24 03:20:55;;;;;;;37.97;22.92;;;12.80;99.90;;;;;;5055262;28;20360;-75
2022/10/24 03:23:21;;;;;;;;;;;12.80;99.90;;;;;;5074147;28;20140;-75
2022/10/24 03:25:47;;;;;;;34.33;22.33;;;12.80;99.90;;;;;;5055061;28;19904;-75
2022/10/24 03:28:13;;;;;;;39.10;24.58;;;12.80;99.90;;;;;;5074013;28;20054;-75
2022/10/24 03:30:38;;;;;;;34.95;22.55;;;12.80;99.90;;;;;;5055488;28;20033;-75
2022/10/24 03:33:04;;;;;;;37.38;23.88;;;12.80;99.90;;;;;;5055692;28;20123;-75
2022/10/24 03:35:29;;;;;;;;;;;12.80;99.90;;;;;;5056045;28;20132;-74
2022/10/24 03:37:55;;;;;;;38.35;22.75;;;12.80;99.90;;;;;;5071951;28;19930;-75
2022/10/24 03:40:21;;;;;;;36.78;22.98;;;12.70;99.90;;;;;;5073532;28;20032;-75
2022/10/24 03:42:46;;;;;;;;;;;12.80;99.90;;;;;;5075529;28;20032;-76
2022/10/24 03:45:12;;;;;;;33.97;22.25;;;12.80;99.90;;;;;;5074740;28;19911;-75
2022/10/24 03:47:37;;;;;;;;;;;12.80;99.90;;;;;;5054787;28;20479;-74
2022/10/24 03:50:04;;;;;;;35.05;23.33;;;12.80;99.90;;;;;;5055313;28;19908;-75
2022/10/24 03:52:30;;;;;;;40.13;24.45;;;12.80;99.90;;;;;;5071812;28;20029;-75
2022/10/24 03:54:55;;;;;;;;;;;12.80;99.90;;;;;;5054317;28;20117;-75
2022/10/24 03:57:21;;;;;;;37.05;23.80;;;12.80;99.90;;;;;;5071928;28;20420;-75
2022/10/24 03:59:46;;;;;;;;;;;12.70;99.90;;;;;;5072266;28;20036;-75
2022/10/24 04:02:13;;;;;;;37.88;24.58;;;12.70;99.90;;;;;;5071577;28;19904;-75
2022/10/24 04:04:39;;;;;;;38.75;24.92;;;12.60;99.90;;;;;;5053630;28;20111;-74
2022/10/24 04:07:04;;;;;;;43.90;25.08;;;12.60;99.90;;;;;;5071644;28;20432;-76
2022/10/24 04:09:30;;;;;;;;;;;12.60;99.90;;;;;;5072315;28;20035;-75
2022/10/24 04:11:55;;;;;;;42.58;25.80;;;12.60;99.90;;;;;;5071831;28;19915;-75
2022/10/24 04:14:21;;;;;;;;;;;12.60;99.90;;;;;;5054544;28;20508;-74
2022/10/24 04:16:47;;;;;;;42.75;25.75;;;12.60;99.90;;;;;;5053899;28;20403;-75
2022/10/24 04:19:12;;;;;;;42.50;25.23;;;12.70;99.90;;;;;;5071882;28;20096;-75
2022/10/24 04:21:38;;;;;;;;;;;12.70;99.90;;;;;;5072065;28;20036;-74
2022/10/24 04:24:03;;;;;;;38.53;23.80;;;12.60;99.90;;;;;;5053470;28;19966;-75
2022/10/24 04:26:29;;;;;;;;;;;12.60;99.90;;;;;;5054010;28;20028;-74
2022/10/24 04:28:55;;;;;;;41.10;23.98;;;12.70;99.90;;;;;;5071413;28;20428;-75
2022/10/24 04:31:20;;;;;;;;;;;12.70;99.90;;;;;;5072141;28;20424;-75
2022/10/24 04:33:46;;;;;;;38.80;23.33;;;12.70;99.90;;;;;;5052900;28;19908;-74
2022/10/24 04:36:11;;;;;;;;;;;12.70;99.90;;;;;;5071264;28;20027;-74
2022/10/24 04:38:37;;;;;;;36.13;21.67;;;12.70;99.90;;;;;;5071042;28;20368;-75
2022/10/24 04:41:03;;;;;;;;;;;12.60;99.90;;;;;;5071461;28;20032;-75
2022/10/24 04:43:28;;;;;;;32.95;19.55;;;12.60;99.90;;;;;;5053229;28;19904;-74
2022/10/24 04:45:54;;;;;;;35.58;22.38;;;12.70;99.90;;;;;;5053108;28;20554;-75
2022/10/24 04:48:19;;;;;;;32.33;20.08;;;12.60;99.90;;;;;;5071233;28;20126;-74
2022/10/24 04:50:45;;;;;;;;;;;12.70;99.90;;;;;;5071376;28;20397;-75
2022/10/24 04:53:11;;;;;;;31.67;20.88;;;12.70;99.90;;;;;;5052772;28;19912;-75
2022/10/24 04:55:37;;;;;;;30.88;20.65;;;12.60;99.90;;;;;;5052123;28;20045;-75
2022/10/24 04:58:03;;;;;;;;;;;12.50;99.90;;;;;;5071073;28;20032;-75
2022/10/24 05:00:28;;;;;;;28.17;18.77;;;12.40;99.90;;;;;;5053354;28;19904;-74
2022/10/24 05:02:54;;;;;;;30.42;20.15;;;12.50;99.90;;;;;;5070320;28;20106;-75
2022/10/24 05:05:20;;;;;;;30.42;20.50;;;12.40;99.90;;;;;;5069709;28;20029;-75
2022/10/24 05:07:45;;;;;;;;;;;12.40;99.90;;;;;;5071146;28;20052;-75
2022/10/24 05:10:12;;;;;;;31.13;20.08;;;12.40;99.90;;;;;;5053294;28;19904;-74
2022/10/24 05:12:38;;;;;;;26.98;19.08;;;12.30;99.90;;;;;;5053112;28;20032;-74
2022/10/24 05:15:04;;;;;;;;;;;12.40;99.90;;;;;;5071311;28;20044;-75
2022/10/24 05:17:30;;;;;;;29.88;19.33;;;12.40;99.90;;;;;;5052387;28;19958;-75
2022/10/24 05:19:55;;;;;;;25.90;19.02;;;12.40;99.90;;;;;;5070331;28;20028;-75
2022/10/24 05:22:21;;;;;;;;;;;12.30;99.90;;;;;;5052807;28;20059;-74
2022/10/24 05:24:46;;;;;;;30.92;18.58;;;12.40;99.90;;;;;;5052903;28;20420;-75
2022/10/24 05:27:12;;;;;;;28.38;19.08;;;12.40;99.90;;;;;;5052575;28;20044;-74
2022/10/24 05:29:38;;;;;;;23.48;17.45;;;12.40;99.90;;;;;;5070325;28;20117;-75
2022/10/24 05:32:03;;;;;;;;;;;12.40;99.90;;;;;;5052919;28;20036;-75
2022/10/24 05:34:29;;;;;;;28.10;18.95;;;12.40;99.90;;;;;;5070540;28;19908;-74
2022/10/24 05:36:54;;;;;;;;;;;12.30;99.90;;;;;;5070926;28;20067;-75
2022/10/24 05:39:21;;;;;;;29.98;21.17;;;12.40;99.90;;;;;;5070723;28;19904;-75
2022/10/24 05:41:47;;;;;;;27.20;19.00;;;12.40;99.90;;;;;;5070650;28;20028;-75
2022/10/24 05:44:13;;;;;;;;;;;12.40;99.90;;;;;;5052835;28;20218;-76
2022/10/24 05:46:39;;;;;;;26.38;18.75;;;12.30;99.90;;;;;;5052720;28;20377;-75
2022/10/24 05:49:06;;;;;;;27.17;19.27;;;12.30;99.90;;;;;;5052833;28;20024;-74
2022/10/24 05:51:31;;;;;;;26.80;19.05;;;12.40;99.90;;;;;;5071272;28;20024;-74
2022/10/24 05:53:57;;;;;;;;;;;12.30;99.90;;;;;;5053674;28;20767;-75
2022/10/24 05:56:23;;;;;;;30.17;19.90;;;12.40;99.90;;;;;;5050120;28;20437;-75
2022/10/24 05:58:49;;;;;;;33.67;19.05;;;12.40;99.90;;;;;;5048225;28;20068;-75
2022/10/24 06:01:14;;;;;;;;;;;12.40;99.90;;;;;;5052888;28;20113;-75
2022/10/24 06:03:41;;;;;;;26.38;18.48;;;12.30;99.90;;;;;;5053595;28;20355;-75
2022/10/24 06:06:07;;;;;;;28.63;18.75;;;12.30;99.90;;;;;;5053503;28;20417;-76
2022/10/24 06:08:35;;;;;;;37.70;21.60;;;12.40;99.90;;;;;;5052340;28;20110;-74
2022/10/24 06:11:01;;;;;;;37.72;21.50;;;12.40;99.90;;;;;;5070250;28;20039;-75
2022/10/24 06:13:27;;;;;;;26.20;18.33;;;12.40;99.90;;;;;;5070345;28;20021;-75
2022/10/24 06:15:53;;;;;;;;;;;12.50;99.90;;;;;;5051723;28;20463;-74
2022/10/24 06:18:18;;;;;;;29.85;18.20;;;12.50;99.90;;;;;;5069714;28;19995;-75
2022/10/24 06:20:44;;;;;;;30.95;18.77;;;12.50;99.90;;;;;;5050576;28;20071;-75
2022/10/24 06:23:09;;;;;;;;;;;12.60;99.90;;;;;;5069851;28;20029;-75
2022/10/24 06:25:35;;;;;;;32.95;19.23;;;12.60;99.90;;;;;;5049814;28;19912;-75
2022/10/24 06:28:00;;;;;;;;;;;12.60;99.90;;;;;;5052278;28;20031;-75
2022/10/24 06:30:26;;;;;;;32.88;18.13;;;12.60;99.90;;;;;;5049743;28;19917;-75
2022/10/24 06:32:52;;;;;;;;;;;12.60;99.90;;;;;;5069978;28;20036;-75
2022/10/24 06:35:18;;;;;;;28.75;18.00;;;12.60;99.90;;;;;;5051645;28;19947;-75
2022/10/24 06:37:47;;;;;;;25.42;16.85;;;12.70;99.90;;;;;;5048135;28;20094;-75
2022/10/24 06:40:17;;;;;;;24.83;15.95;;;12.70;99.90;;;;;;5045931;28;20427;-75
2022/10/24 06:42:43;;;;;;;30.10;17.60;;;12.70;99.90;;;;;;5047359;28;20051;-75
2022/10/24 06:45:09;;;;;;;26.70;17.23;;;12.80;99.90;;;;;;5049440;28;20055;-74
2022/10/24 06:47:35;;;;;;;28.58;16.85;;;12.80;99.90;;;;;;5068765;28;20101;-75
2022/10/24 06:50:01;;;;;;;;;;;12.80;99.90;;;;;;5051923;28;20025;-75
2022/10/24 06:52:27;;;;;;;31.13;16.70;;;12.80;99.90;;;;;;5068576;28;20485;-75
2022/10/24 06:54:52;;;;;;;;;;;12.80;99.90;;;;;;5051839;28;20040;-75
2022/10/24 06:57:18;;;;;;;37.22;18.40;;;12.80;99.90;;;;;;5063210;28;19916;-75
2022/10/24 06:59:43;;;;;;;;;;;12.70;99.90;;;;;;5036569;28;20037;-75
2022/10/24 07:02:13;;;;;;;31.23;18.17;;;12.60;99.90;;;;;;5049519;28;19905;-75
2022/10/24 07:04:39;;;;;;;26.55;17.10;;;12.60;99.90;;;;;;5049542;28;20029;-75
2022/10/24 07:07:04;;;;;;;;;;;12.60;99.90;;;;;;5062451;28;20087;-75
2022/10/24 07:09:30;;;;;;;28.33;15.98;;;12.70;99.90;;;;;;5064045;28;19915;-75
2022/10/24 07:11:56;;;;;;;;;;;12.70;99.90;;;;;;5040554;28;20032;-75
2022/10/24 07:14:21;;;;;;;30.17;15.80;;;12.80;99.90;;;;;;5033903;28;19913;-75
2022/10/24 07:16:47;;;;;;;;;;;12.70;99.90;;;;;;5053806;28;20021;-75
2022/10/24 07:19:13;;;;;;;29.33;14.95;;;12.80;99.90;;;;;;5052780;28;19909;-75
2022/10/24 07:21:38;;;;;;;32.55;15.90;;;12.90;99.90;;;;;;5035122;28;20029;-75
2022/10/24 07:24:04;;;;;;;;;;;12.90;99.90;;;;;;5035334;28;20064;-75
2022/10/24 07:26:30;;;;;;;27.02;18.42;;;12.90;99.90;;;;;;5052648;28;20010;-75
2022/10/24 07:28:59;;;;;;;27.50;19.00;;;12.90;99.90;;;;;;5069920;28;20040;-75
2022/10/24 07:31:29;;;;;;;29.52;19.17;;;12.90;99.90;;;;;;5072521;28;20021;-75
2022/10/24 07:33:55;;;;;;;27.60;18.42;;;12.90;99.90;;;;;;5052453;28;20384;-76
2022/10/24 07:36:23;;;;;;;31.27;20.30;;;13.00;99.90;;;;;;5073058;28;20587;-75
2022/10/24 07:38:51;;;;;;;29.65;18.90;;;13.10;99.90;;;;;;5070607;28;20024;-75
2022/10/24 07:41:20;;;;;;;37.85;19.90;;;13.10;99.90;;;;;;5048849;28;20033;-75
2022/10/24 07:43:46;;;;;;;30.88;18.73;;;13.20;99.90;;;;;;5034932;28;20057;-76
2022/10/24 07:46:14;;;;;;;36.35;17.25;;;13.20;99.90;;;;;;5034790;28;20033;-75
2022/10/24 07:48:41;;;;;;;29.83;16.60;;;13.20;99.90;;;;;;5052415;28;20405;-74
2022/10/24 07:51:09;;;;;;;29.73;16.92;;;13.30;99.90;;;;;;5052990;28;20051;-75
2022/10/24 07:53:34;;;;;;;23.38;15.57;;;13.40;99.90;;;;;;5052759;28;20539;-75
2022/10/24 07:56:00;;;;;;;;;;;13.50;99.90;;;;;;5053568;28;20037;-75
2022/10/24 07:58:27;;;;;;;37.65;17.83;;;13.60;99.90;;;;;;5052515;28;19909;-75
2022/10/24 08:00:52;;;;;;;28.58;17.27;;;13.60;99.90;;;;;;5053049;28;20039;-75
2022/10/24 08:03:18;;;;;;;;;;;13.60;99.90;;;;;;5052855;28;20021;-75
2022/10/24 08:05:43;;;;;;;29.27;14.15;;;13.70;99.90;;;;;;5051980;28;19960;-75
2022/10/24 08:08:09;;;;;;;;;;;13.80;99.90;;;;;;5052486;28;20061;-75
2022/10/24 08:10:35;;;;;;;30.30;14.55;;;13.90;99.90;;;;;;5034283;28;19908;-75
2022/10/24 08:13:01;;;;;;;;;;;14.00;99.90;;;;;;5034857;28;20063;-75
2022/10/24 08:15:27;;;;;;;32.55;15.65;;;14.10;99.90;;;;;;5052429;28;19917;-75
2022/10/24 08:17:56;;;;;;;;;;;14.20;99.90;;;;;;5052753;28;20048;-75
2022/10/24 08:20:25;;;;;;;38.17;15.05;;;14.30;99.90;;;;;;5052284;28;19987;-74
2022/10/24 08:22:56;;;;;;;34.95;15.00;;;14.40;99.90;;;;;;5034330;28;20021;-75
2022/10/24 08:25:24;;;;;;;40.78;14.70;;;14.40;99.90;;;;;;5051166;28;20054;-75
2022/10/24 08:27:50;;;;;;;35.60;14.70;;;14.50;99.90;;;;;;5034668;28;20029;-75
2022/10/24 08:30:19;;;;;;;32.40;15.23;;;14.60;99.90;;;;;;5052614;28;20300;-75
2022/10/24 08:32:45;;;;;;;30.17;14.13;;;14.70;99.90;;;;;;5033162;28;20029;-76
2022/10/24 08:35:16;;;;;;;30.75;15.50;;;14.60;99.90;;;;;;5033047;28;20094;-75
2022/10/24 08:37:42;;;;;;;32.25;14.82;;;14.70;99.90;;;;;;5051246;28;20067;-76
2022/10/24 08:40:14;;;;;;;35.92;16.38;;;14.80;99.90;;;;;;5051245;28;20033;-76
2022/10/24 08:42:40;;;;;;;32.83;14.07;;;14.90;99.90;;;;;;5033002;28;20112;-75
2022/10/24 08:45:14;;;;;;;35.63;15.10;;;15.00;99.90;;;;;;5033006;28;20552;-75
2022/10/24 08:48:13;;;;;;;30.98;14.23;;;15.00;99.90;;;;;;5032962;28;20036;-76
2022/10/24 08:50:44;;;;;;;34.50;15.52;;;15.10;99.90;;;;;;5050005;28;20037;-75
2022/10/24 08:53:27;;;;;;;31.05;16.02;;;15.20;99.90;;;;;;5050687;28;20033;-75
2022/10/24 08:55:55;;;;;;;35.58;14.65;;;15.40;99.90;;;;;;5032612;28;20041;-75
2022/10/24 08:58:33;;;;;;;29.65;15.15;;;15.60;99.90;;;;;;5063862;28;20087;-79
2022/10/24 09:01:01;;;;;;;27.05;15.30;;;15.80;99.90;;;;;;5045247;28;20029;-75
2022/10/24 09:03:39;;;;;;;39.58;15.15;;;15.90;99.90;;;;;;5032431;28;20025;-76
2022/10/24 09:06:13;;;;;;;24.80;12.27;;;16.10;99.90;;;;;;5032506;28;20029;-75
2022/10/24 09:09:11;;;;;;;19.38;11.52;;;16.30;99.90;;;;;;5032373;28;20029;-75
2022/10/24 09:11:44;;;;;;;24.40;12.65;;;16.40;99.90;;;;;;5050119;28;20021;-76
2022/10/24 09:14:13;;;;;;;19.55;9.90;;;16.50;99.90;;;;;;5049909;28;20033;-76
2022/10/24 09:16:42;;;;;;;19.45;11.10;;;16.70;99.90;;;;;;5049911;28;20024;-75
2022/10/24 09:19:13;;;;;;;22.42;11.63;;;16.80;99.90;;;;;;5032279;28;20033;-75
2022/10/24 09:21:41;;;;;;;20.17;10.95;;;16.80;99.90;;;;;;5049823;28;20108;-76
2022/10/24 09:24:26;;;;;;;23.55;12.70;;;17.00;99.90;;;;;;5032263;28;20405;-77
2022/10/24 09:26:51;;;;;;;25.30;11.18;;;17.10;99.90;;;;;;5027027;28;20025;-78
2022/10/24 09:29:23;;;;;;;22.58;12.05;;;17.10;99.90;;;;;;5031665;28;20678;-76
2022/10/24 09:31:49;;;;;;;30.38;12.52;;;17.10;99.90;;;;;;5031860;28;20120;-76
2022/10/24 09:34:16;;;;;;;27.85;13.77;;;17.10;99.90;;;;;;5049580;28;20104;-75
2022/10/24 09:36:41;;;;;;;28.75;12.50;;;17.10;99.90;;;;;;5048992;28;20029;-75
2022/10/24 09:39:34;;;;;;;37.13;13.65;;;17.00;99.90;;;;;;5049693;28;20078;-78
2022/10/24 09:42:01;;;;;;;36.97;14.02;;;17.10;99.90;;;;;;5028860;28;20043;-77
2022/10/24 09:44:39;;;;;;;26.88;12.80;;;17.00;99.90;;;;;;5032088;28;20083;-77
2022/10/24 09:47:20;;;;;;;42.35;14.88;;;17.00;99.90;;;;;;5050186;28;20025;-78
2022/10/24 09:49:46;;;;;;;42.22;16.35;;;17.00;99.90;;;;;;5049575;28;20056;-75
2022/10/24 09:52:26;;;;;;;38.53;16.65;;;17.00;99.90;;;;;;5049606;28;20036;-75
2022/10/24 09:55:27;;;;;;;49.83;15.80;;;17.10;99.90;;;;;;5049245;28;20029;-75
2022/10/24 09:57:58;;;;;;;42.97;17.05;;;17.20;99.90;;;;;;5017187;28;20053;-75
2022/10/24 10:00:28;;;;;;;39.20;16.23;;;17.30;99.90;;;;;;5031525;28;20039;-75
2022/10/24 10:03:17;;;;;;;37.80;15.93;;;17.20;99.90;;;;;;5031178;28;20028;-75
2022/10/24 10:06:16;;;;;;;43.55;15.07;;;17.20;99.90;;;;;;5031693;28;20055;-77
2022/10/24 10:08:53;;;;;;;40.13;14.23;;;17.30;99.90;;;;;;5046075;28;20411;-76
2022/10/24 10:11:30;;;;;;;31.73;13.77;;;17.40;99.90;;;;;;5031217;28;20029;-76
2022/10/24 10:13:59;;;;;;;36.17;13.27;;;17.50;99.90;;;;;;5031245;28;20635;-76
2022/10/24 10:16:35;;;;;;;33.65;14.65;;;17.40;99.90;;;;;;5049100;28;20040;-76
2022/10/24 10:19:11;;;;;;;29.67;13.68;;;17.40;99.90;;;;;;5031640;28;20120;-76
2022/10/24 10:22:00;;;;;;;29.80;13.65;;;17.40;99.90;;;;;;5050371;28;20032;-76
2022/10/24 10:24:46;;;;;;;28.92;13.02;;;17.40;99.90;;;;;;5050286;28;20029;-76
2022/10/24 10:27:29;;;;;;;28.33;13.83;;;17.20;99.90;;;;;;5049373;28;20379;-76
2022/10/24 10:30:15;;;;;;;34.95;13.73;;;17.20;99.90;;;;;;5049424;28;20028;-76
2022/10/24 10:32:55;;;;;;;28.80;12.55;;;17.20;99.90;;;;;;5049185;28;20552;-77
2022/10/24 10:35:48;;;;;;;23.05;11.75;;;17.30;99.90;;;;;;5049283;28;20471;-76
2022/10/24 10:38:37;;;;;;;29.92;13.82;;;17.30;99.90;;;;;;5031277;28;20064;-75
2022/10/24 10:41:29;;;;;;;28.98;13.45;;;17.40;99.90;;;;;;5002037;28;20029;-76
2022/10/24 10:44:32;;;;;;;32.00;13.43;;;17.30;99.90;;;;;;5025364;28;20037;-76
2022/10/24 10:47:33;;;;;;;34.80;14.15;;;17.30;99.90;;;;;;5049371;28;20111;-78
2022/10/24 10:50:00;;;;;;;28.80;12.93;;;17.30;99.90;;;;;;5053046;28;20035;-76
2022/10/24 10:52:46;;;;;;;27.58;13.07;;;17.30;99.90;;;;;;5034828;28;20063;-76
2022/10/24 10:55:38;;;;;;;35.40;13.93;;;17.20;99.90;;;;;;5034612;28;20075;-77
2022/10/24 10:58:52;;;;;;;31.45;13.77;;;17.20;99.90;;;;;;5052762;28;20267;-76
2022/10/24 11:01:38;;;;;;;24.77;12.27;;;17.10;99.90;;;;;;5034627;28;20028;-76
2022/10/24 11:04:14;;;;;;;29.42;13.38;;;17.00;99.90;;;;;;5034704;28;20021;-77
2022/10/24 11:07:04;;;;;;;;;;;17.00;99.90;;;;;;5035032;28;20053;-76
2022/10/24 11:09:39;;;;;;;26.50;12.43;;;16.90;99.90;;;;;;5052752;28;19995;-76
2022/10/24 11:12:11;;;;;;;18.58;11.10;;;16.90;99.90;;;;;;5052699;28;20128;-76
2022/10/24 11:14:43;;;;;;;26.27;12.95;;;16.80;99.90;;;;;;5052607;28;20031;-76
2022/10/24 11:17:16;;;;;;;23.42;12.13;;;16.80;99.90;;;;;;5034516;28;20036;-77
2022/10/24 11:20:03;;;;;;;26.52;13.15;;;16.70;99.90;;;;;;5052679;28;20064;-76
2022/10/24 11:22:39;;;;;;;23.55;12.40;;;16.70;99.90;;;;;;5034611;28;20032;-76
2022/10/24 11:25:18;;;;;;;24.25;12.73;;;16.70;99.90;;;;;;5035026;28;20113;-76
2022/10/24 11:27:54;;;;;;;22.15;11.82;;;16.70;99.90;;;;;;5034013;28;20107;-76
2022/10/24 11:30:29;;;;;;;21.33;12.30;;;16.70;99.90;;;;;;5034580;28;20103;-76
2022/10/24 11:33:03;;;;;;;21.88;11.70;;;16.70;99.90;;;;;;5034382;28;20029;-77
2022/10/24 11:35:33;;;;;;;25.00;11.63;;;16.70;99.90;;;;;;5052264;28;20028;-76
2022/10/24 11:38:22;;;;;;;21.95;12.25;;;16.70;99.90;;;;;;5052296;28;20037;-76
2022/10/24 11:40:54;;;;;;;18.58;11.25;;;16.70;99.90;;;;;;5034661;28;20053;-76
2022/10/24 11:43:31;;;;;;;25.20;12.68;;;16.70;99.90;;;;;;5034536;28;20500;-76
2022/10/24 11:46:19;;;;;;;21.50;11.52;;;16.70;99.90;;;;;;5051992;28;20025;-77
2022/10/24 11:48:54;;;;;;;24.08;11.05;;;16.70;99.90;;;;;;5052159;28;20383;-76
2022/10/24 11:51:27;;;;;;;21.10;11.45;;;16.70;99.90;;;;;;5033963;28;20025;-76
2022/10/24 11:53:55;;;;;;;23.70;11.93;;;16.70;99.90;;;;;;5051795;28;20025;-76
2022/10/24 11:56:24;;;;;;;19.88;11.15;;;16.80;99.90;;;;;;5051389;28;20425;-76
2022/10/24 11:58:55;;;;;;;34.97;11.15;;;16.80;99.90;;;;;;5033193;28;20021;-77
2022/10/24 12:01:59;;;;;;;20.40;11.27;;;16.80;99.90;;;;;;5034064;28;20066;-76
2022/10/24 12:04:51;;;;;;;23.35;11.85;;;16.70;99.90;;;;;;4973549;28;20486;-76
2022/10/24 12:07:41;;;;;;;22.95;11.35;;;16.70;99.90;;;;;;5049357;28;20509;-76
2022/10/24 12:10:34;;;;;;;23.38;11.98;;;16.70;99.90;;;;;;5052067;28;20426;-75
2022/10/24 12:13:25;;;;;;;21.25;12.55;;;16.70;99.90;;;;;;5033385;28;20048;-75
2022/10/24 12:15:57;;;;;;;22.40;12.65;;;16.70;99.90;;;;;;5033541;28;20041;-75
2022/10/24 12:18:26;;;;;;;32.53;13.70;;;16.70;99.90;;;;;;5033617;28;20028;-75
2022/10/24 12:20:54;;;;;;;28.20;12.90;;;16.70;99.90;;;;;;5051556;28;20035;-75
2022/10/24 12:23:30;;;;;;;27.98;14.45;;;16.70;99.90;;;;;;5051327;28;20112;-75
2022/10/24 12:26:32;;;;;;;27.10;13.45;;;16.80;99.90;;;;;;5051768;28;20066;-76
2022/10/24 12:29:03;;;;;;;32.85;14.60;;;16.80;99.90;;;;;;5032182;28;20035;-75
2022/10/24 12:31:31;;;;;;;46.10;18.13;;;16.90;99.90;;;;;;5051489;28;20029;-75
2022/10/24 12:34:15;;;;;;;32.15;14.32;;;16.90;99.90;;;;;;5033430;28;20021;-75
2022/10/24 12:37:10;;;;;;;27.70;14.63;;;16.90;99.90;;;;;;5051017;28;20051;-75
2022/10/24 12:39:38;;;;;;;25.50;14.77;;;16.90;99.90;;;;;;5033269;28;20029;-76
2022/10/24 12:42:11;;;;;;;46.85;15.55;;;16.90;99.90;;;;;;5032986;28;20033;-75
2022/10/24 12:44:39;;;;;;;28.27;12.80;;;16.80;99.90;;;;;;5032869;28;20496;-75
2022/10/24 12:47:23;;;;;;;34.53;14.93;;;16.70;99.90;;;;;;5051078;28;20516;-75
2022/10/24 12:49:49;;;;;;;26.98;14.27;;;16.70;99.90;;;;;;5050758;28;20017;-75
2022/10/24 12:52:41;;;;;;;24.35;13.30;;;16.60;99.90;;;;;;5032791;28;20036;-74
2022/10/24 12:55:49;;;;;;;24.20;14.82;;;16.50;99.90;;;;;;5010008;28;20049;-75
2022/10/24 12:58:43;;;;;;;22.88;13.68;;;16.40;99.90;;;;;;5048932;28;20496;-74
2022/10/24 13:01:23;;;;;;;34.20;14.27;;;16.40;99.90;;;;;;5050112;28;20094;-74
2022/10/24 13:03:49;;;;;;;26.25;14.38;;;16.50;99.90;;;;;;5050817;28;20025;-75
2022/10/24 13:06:51;;;;;;;30.67;13.93;;;16.40;99.90;;;;;;5051210;28;20124;-75
2022/10/24 13:09:43;;;;;;;31.42;13.45;;;16.40;99.90;;;;;;5046122;28;20094;-76